Time;durP1;ratioP1;P1;durP2;ratioP2;P2;SDS_P1;SDS_P2;PMS_P1;PMS_P2;Temp;Humidity;BMP_temperature;BMP_pressure;BME280_temperature;BME280_humidity;BME280_pressure;Samples;Min_cycle;Max_cycle;Signal;HPM_P1;HPM_P2
2022/09/30 00:01:50;;;;;;;63.70;34.00;;;;;;;5.26;100.00;99320.66;4165856;28;20246;-75
2022/09/30 00:04:22;;;;;;;60.40;32.10;;;;;;;5.30;100.00;99314.16;4163562;28;23549;-74
2022/09/30 00:06:50;;;;;;;59.87;30.80;;;;;;;5.28;100.00;99318.72;4163853;28;20230;-73
2022/09/30 00:09:17;;;;;;;53.07;29.77;;;;;;;5.27;100.00;99311.78;4180971;28;20234;-74
2022/09/30 00:11:45;;;;;;;49.87;27.03;;;;;;;5.28;100.00;99310.81;4167316;28;20227;-72
2022/09/30 00:14:17;;;;;;;48.00;27.40;;;;;;;5.26;100.00;99313.56;4157049;28;20236;-74
2022/09/30 00:16:43;;;;;;;51.27;26.93;;;;;;;5.19;100.00;99317.75;4163817;28;20272;-74
2022/09/30 00:19:11;;;;;;;51.37;26.93;;;;;;;5.23;100.00;99311.22;4170408;28;20322;-71
2022/09/30 00:21:37;;;;;;;49.40;26.70;;;;;;;5.17;100.00;99324.94;4169436;28;20557;-69
2022/09/30 00:24:04;;;;;;;47.77;25.13;;;;;;;5.17;100.00;99319.69;4164188;28;20321;-73
2022/09/30 00:26:31;;;;;;;45.00;24.60;;;;;;;5.21;100.00;99325.53;4162430;28;20239;-73
2022/09/30 00:28:58;;;;;;;43.40;23.97;;;;;;;5.20;100.00;99318.59;4165731;28;20234;-73
2022/09/30 00:31:29;;;;;;;54.10;25.57;;;;;;;5.17;100.00;99329.41;4150946;28;20424;-71
2022/09/30 00:34:07;;;;;;;49.07;25.13;;;;;;;5.15;100.00;99331.34;4162370;28;21768;-72
2022/09/30 00:36:46;;;;;;;49.80;27.73;;;;;;;5.04;100.00;99327.88;4165310;28;20667;-73
2022/09/30 00:39:21;;;;;;;48.57;25.30;;;;;;;4.99;100.00;99327.44;4150392;28;22677;-72
2022/09/30 00:41:50;;;;;;;47.00;25.70;;;;;;;4.97;100.00;99337.28;4158817;28;20242;-71
2022/09/30 00:44:53;;;;;;;51.70;27.83;;;;;;;4.89;100.00;99336.31;4148140;28;20827;-73
2022/09/30 00:47:34;;;;;;;56.20;28.27;;;;;;;4.85;100.00;99327.84;4180158;28;21892;-71
2022/09/30 00:50:12;;;;;;;52.37;27.23;;;;;;;4.71;100.00;99322.97;4168222;28;20362;-73
2022/09/30 00:52:41;;;;;;;52.57;26.93;;;;;;;4.72;100.00;99322.81;4165378;28;20632;-71
2022/09/30 00:55:26;;;;;;;51.87;26.13;;;;;;;4.67;100.00;99334.72;4147990;28;20236;-72
2022/09/30 00:57:53;;;;;;;51.77;26.97;;;;;;;4.65;100.00;99326.94;4177635;28;20237;-72
2022/09/30 01:00:19;;;;;;;51.17;26.97;;;;;;;4.61;100.00;99323.78;4148153;28;23711;-73
2022/09/30 01:02:47;;;;;;;49.23;25.13;;;;;;;4.64;100.00;99320.03;4163147;28;25739;-73
2022/09/30 01:05:14;;;;;;;50.20;26.17;;;;;;;4.60;100.00;99314.19;4150564;28;20230;-73
2022/09/30 01:07:41;;;;;;;52.57;26.10;;;;;;;4.60;100.00;99322.09;4159033;28;20264;-75
2022/09/30 01:10:07;;;;;;;45.63;23.20;;;;;;;4.59;100.00;99333.59;4167541;28;20235;-73
2022/09/30 01:12:34;;;;;;;40.67;21.87;;;;;;;4.63;100.00;99316.53;4160423;28;20231;-73
2022/09/30 01:15:01;;;;;;;45.23;23.17;;;;;;;4.70;100.00;99321.28;4167984;28;21285;-73
2022/09/30 01:17:51;;;;;;;52.13;26.43;;;;;;;4.64;100.00;99318.22;4170963;28;20334;-74
2022/09/30 01:20:29;;;;;;;51.40;26.87;;;;;;;4.63;100.00;99321.81;4178000;28;20309;-71
2022/09/30 01:23:15;;;;;;;49.27;25.67;;;;;;;4.60;100.00;99311.53;4163724;28;20297;-72
2022/09/30 01:26:22;;;;;;;42.60;23.37;;;;;;;4.55;100.00;99307.66;4167022;28;20250;-71
2022/09/30 01:29:23;;;;;;;42.67;21.50;;;;;;;4.50;100.00;99315.97;4168894;28;20240;-72
2022/09/30 01:32:03;;;;;;;53.30;25.50;;;;;;;4.52;100.00;99329.84;4149836;28;20237;-72
2022/09/30 01:34:36;;;;;;;46.10;23.77;;;;;;;4.49;100.00;99329.25;4165660;28;20834;-73
2022/09/30 01:37:28;;;;;;;45.77;25.13;;;;;;;4.46;100.00;99327.72;4173205;28;20235;-74
2022/09/30 01:40:09;;;;;;;47.40;24.47;;;;;;;4.50;100.00;99330.94;4168607;28;20599;-72
2022/09/30 01:42:53;;;;;;;47.03;24.00;;;;;;;4.51;100.00;99333.41;4164223;28;21527;-74
2022/09/30 01:45:33;;;;;;;49.90;25.43;;;;;;;4.46;100.00;99334.81;4167544;28;20251;-75
2022/09/30 01:48:07;;;;;;;44.93;24.20;;;;;;;4.39;100.00;99343.22;4166826;28;20266;-73
2022/09/30 01:50:46;;;;;;;45.90;23.30;;;;;;;4.39;100.00;99348.50;4161458;28;21598;-73
2022/09/30 01:53:19;;;;;;;43.27;22.33;;;;;;;4.38;100.00;99348.66;4163914;28;21184;-72
2022/09/30 01:56:12;;;;;;;48.80;24.27;;;;;;;4.43;100.00;99349.06;4165859;28;20228;-71
2022/09/30 01:58:49;;;;;;;47.53;25.13;;;;;;;4.43;100.00;99351.72;4168852;28;20345;-73
2022/09/30 02:01:22;;;;;;;43.07;23.27;;;;;;;4.41;100.00;99358.91;4153098;28;20386;-72
2022/09/30 02:03:54;;;;;;;47.73;24.50;;;;;;;4.36;100.00;99359.31;4167832;28;20250;-74
2022/09/30 02:06:25;;;;;;;46.63;23.67;;;;;;;4.37;100.00;99368.03;4173498;28;23050;-73
2022/09/30 02:09:25;;;;;;;47.07;23.50;;;;;;;4.33;100.00;99362.22;4161243;28;20233;-74
2022/09/30 02:11:55;;;;;;;45.67;22.10;;;;;;;4.30;100.00;99361.63;4170645;28;20326;-73
2022/09/30 02:14:36;;;;;;;45.87;23.50;;;;;;;4.28;100.00;99368.81;4168272;28;20277;-73
2022/09/30 02:17:08;;;;;;;42.20;22.40;;;;;;;4.30;100.00;99369.53;4165627;28;20265;-74
2022/09/30 02:19:40;;;;;;;44.77;22.13;;;;;;;4.19;100.00;99375.69;4159871;28;20238;-72
2022/09/30 02:22:13;;;;;;;40.97;22.03;;;;;;;4.20;100.00;99391.38;4184581;28;20243;-72
2022/09/30 02:24:42;;;;;;;43.80;22.77;;;;;;;4.15;100.00;99379.56;4149117;28;25388;-73
2022/09/30 02:27:14;;;;;;;41.40;21.20;;;;;;;4.16;100.00;99376.78;4144242;28;21805;-73
2022/09/30 02:29:45;;;;;;;36.77;20.47;;;;;;;4.12;100.00;99380.66;4151803;28;20350;-71
2022/09/30 02:32:25;;;;;;;42.13;21.80;;;;;;;4.10;100.00;99387.84;4156352;28;20237;-72
2022/09/30 02:35:09;;;;;;;40.27;21.90;;;;;;;4.04;100.00;99393.63;4154134;28;20407;-73
2022/09/30 02:37:40;;;;;;;39.07;21.27;;;;;;;4.04;100.00;99388.34;4162157;28;20287;-74
2022/09/30 02:40:22;;;;;;;41.17;21.70;;;;;;;3.99;100.00;99383.47;4162018;28;20358;-74
2022/09/30 02:42:49;;;;;;;42.43;21.43;;;;;;;3.99;100.00;99385.28;4151103;28;20253;-72
2022/09/30 02:45:20;;;;;;;39.10;20.93;;;;;;;3.99;100.00;99386.13;4157718;28;20686;-71
2022/09/30 02:48:01;;;;;;;41.53;21.63;;;;;;;3.99;100.00;99387.91;4148643;28;26491;-73
2022/09/30 02:50:53;;;;;;;40.40;21.73;;;;;;;3.95;100.00;99379.44;4166018;28;20616;-73
2022/09/30 02:53:30;;;;;;;43.10;21.83;;;;;;;3.99;100.00;99395.81;4170086;28;20231;-71
2022/09/30 02:56:03;;;;;;;37.97;20.60;;;;;;;3.98;100.00;99400.25;4170049;28;20240;-74
2022/09/30 02:58:35;;;;;;;43.97;21.17;;;;;;;3.91;100.00;99401.72;4167930;28;21736;-73
2022/09/30 03:01:03;;;;;;;40.47;20.73;;;;;;;3.89;100.00;99402.81;4172500;28;20386;-73
2022/09/30 03:03:34;;;;;;;43.70;21.13;;;;;;;3.89;100.00;99402.81;4170193;28;20239;-75
2022/09/30 03:06:00;;;;;;;36.73;20.17;;;;;;;3.89;100.00;99400.19;4169005;28;20235;-73
2022/09/30 03:08:28;;;;;;;43.23;21.57;;;;;;;3.92;100.00;99395.50;4163229;28;25000;-72
2022/09/30 03:10:55;;;;;;;44.80;21.23;;;;;;;3.87;100.00;99399.47;4153441;28;20231;-71
2022/09/30 03:13:33;;;;;;;39.03;20.77;;;;;;;3.86;100.00;99403.06;4172425;28;20288;-74
2022/09/30 03:16:05;;;;;;;41.50;19.40;;;;;;;3.84;100.00;99403.19;4157267;28;20289;-74
2022/09/30 03:18:53;;;;;;;39.93;20.87;;;;;;;3.88;100.00;99401.97;4168809;28;22852;-75
2022/09/30 03:21:25;;;;;;;41.00;20.30;;;;;;;3.90;100.00;99402.69;4169722;28;20649;-74
2022/09/30 03:24:21;;;;;;;41.27;20.97;;;;;;;3.90;100.00;99401.84;4169946;28;20250;-74
2022/09/30 03:26:53;;;;;;;40.57;19.83;;;;;;;3.84;100.00;99402.34;4160578;28;20234;-72
2022/09/30 03:29:32;;;;;;;38.43;19.77;;;;;;;3.79;100.00;99405.34;4171890;28;22375;-75
2022/09/30 03:32:07;;;;;;;40.83;20.47;;;;;;;3.78;100.00;99409.78;4171454;28;20550;-73
2022/09/30 03:34:54;;;;;;;37.40;20.70;;;;;;;3.77;100.00;99412.56;4150046;28;20281;-72
2022/09/30 03:37:39;;;;;;;44.97;22.23;;;;;;;3.78;100.00;99409.78;4181039;28;21051;-72
2022/09/30 03:40:16;;;;;;;41.70;22.60;;;;;;;3.84;100.00;99407.59;4166648;28;21084;-73
2022/09/30 03:42:46;;;;;;;42.03;21.23;;;;;;;3.85;100.00;99414.56;4166337;28;20234;-75
2022/09/30 03:45:13;;;;;;;44.47;23.07;;;;;;;3.83;100.00;99406.78;4147375;28;23082;-74
2022/09/30 03:47:46;;;;;;;47.97;23.27;;;;;;;3.90;100.00;99404.47;4162078;28;21823;-75
2022/09/30 03:50:15;;;;;;;49.83;23.67;;;;;;;3.88;100.00;99414.28;4157555;28;21965;-75
2022/09/30 03:52:42;;;;;;;47.23;22.83;;;;;;;3.97;100.00;99410.91;4156644;28;21758;-72
2022/09/30 03:55:10;;;;;;;44.77;23.57;;;;;;;3.95;100.00;99407.56;4170412;28;20289;-76
2022/09/30 03:57:37;;;;;;;51.77;24.43;;;;;;;3.91;100.00;99425.41;4176285;28;20674;-74
2022/09/30 04:00:05;;;;;;;45.07;22.70;;;;;;;3.91;100.00;99408.75;4167892;28;20339;-72
2022/09/30 04:02:35;;;;;;;51.70;24.33;;;;;;;3.94;100.00;99414.63;4167268;28;20470;-75
2022/09/30 04:05:01;;;;;;;52.83;25.13;;;;;;;3.92;100.00;99403.38;4176660;28;21661;-74
2022/09/30 04:07:28;;;;;;;46.67;23.97;;;;;;;3.99;100.00;99414.25;4178612;28;22964;-72
2022/09/30 04:09:55;;;;;;;47.53;24.63;;;;;;;4.02;100.00;99417.44;4151519;28;21435;-76
2022/09/30 04:12:21;;;;;;;49.60;24.40;;;;;;;3.97;100.00;99417.00;4173741;28;21325;-73
2022/09/30 04:14:48;;;;;;;47.43;23.63;;;;;;;4.10;100.00;99423.88;4160681;28;20425;-73
2022/09/30 04:17:14;;;;;;;48.43;24.53;;;;;;;4.10;100.00;99426.53;4159239;28;20608;-74
2022/09/30 04:19:41;;;;;;;50.07;25.30;;;;;;;4.07;100.00;99432.00;4171746;28;20269;-73
2022/09/30 04:22:08;;;;;;;53.43;26.27;;;;;;;4.06;100.00;99439.09;4194772;28;20242;-75
2022/09/30 04:24:35;;;;;;;51.23;24.93;;;;;;;4.11;100.00;99447.44;4158260;28;20240;-73
2022/09/30 04:27:03;;;;;;;47.90;23.33;;;;;;;4.05;100.00;99457.63;4163165;28;20230;-75
2022/09/30 04:29:30;;;;;;;39.50;20.70;;;;;;;3.99;100.00;99464.25;4176646;28;20560;-73
2022/09/30 04:31:56;;;;;;;47.17;22.83;;;;;;;3.95;100.00;99468.09;4178522;28;20550;-73
2022/09/30 04:34:23;;;;;;;45.00;22.03;;;;;;;3.88;100.00;99466.94;4174462;28;20239;-76
2022/09/30 04:36:49;;;;;;;45.13;23.07;;;;;;;3.86;100.00;99466.22;4178390;28;20241;-75
2022/09/30 04:39:16;;;;;;;41.23;21.60;;;;;;;3.84;100.00;99466.38;4177326;28;20372;-71
2022/09/30 04:41:42;;;;;;;47.83;23.53;;;;;;;3.85;100.00;99470.66;4169353;28;25607;-73
2022/09/30 04:44:09;;;;;;;46.90;24.67;;;;;;;3.88;100.00;99473.03;4174068;28;20234;-72
2022/09/30 04:46:36;;;;;;;57.20;28.07;;;;;;;3.89;100.00;99473.88;4170533;28;20448;-73
2022/09/30 04:49:04;;;;;;;59.80;30.00;;;;;;;4.00;100.00;99465.91;4187187;28;21115;-74
2022/09/30 04:51:35;;;;;;;63.70;29.50;;;;;;;4.09;100.00;99467.78;4167682;28;20231;-73
2022/09/30 04:54:01;;;;;;;61.13;31.67;;;;;;;4.17;100.00;99465.38;4168078;28;20296;-72
2022/09/30 04:56:28;;;;;;;63.67;31.17;;;;;;;4.17;100.00;99468.00;4162037;28;21276;-76
2022/09/30 04:58:55;;;;;;;70.53;32.40;;;;;;;4.19;100.00;99476.59;4180774;28;22035;-74
2022/09/30 05:01:21;;;;;;;66.70;30.93;;;;;;;4.22;100.00;99481.59;4173214;28;20235;-74
2022/09/30 05:03:49;;;;;;;60.43;28.27;;;;;;;4.14;100.00;99478.75;4158499;28;20247;-72
2022/09/30 05:06:16;;;;;;;58.93;27.70;;;;;;;4.14;100.00;99491.91;4176397;28;22000;-76
2022/09/30 05:08:42;;;;;;;54.33;27.20;;;;;;;4.20;100.00;99496.69;4172757;28;25739;-72
2022/09/30 05:11:16;;;;;;;54.87;28.03;;;;;;;4.26;100.00;99494.50;4162230;28;20246;-73
2022/09/30 05:13:43;;;;;;;50.10;25.87;;;;;;;4.29;100.00;99507.44;4159406;28;20268;-72
2022/09/30 05:16:10;;;;;;;56.77;27.80;;;;;;;4.32;100.00;99504.53;4155348;28;21494;-71
2022/09/30 05:18:39;;;;;;;60.33;29.80;;;;;;;4.37;100.00;99504.97;4187960;28;20359;-71
2022/09/30 05:21:06;;;;;;;69.00;30.90;;;;;;;4.40;100.00;99499.44;4169141;28;20591;-72
2022/09/30 05:23:33;;;;;;;59.40;28.50;;;;;;;4.43;100.00;99493.94;4172847;28;20238;-75
2022/09/30 05:26:00;;;;;;;56.67;29.03;;;;;;;4.48;100.00;99502.28;4158485;28;20301;-74
2022/09/30 05:28:28;;;;;;;58.20;27.97;;;;;;;4.50;100.00;99492.47;4194995;28;20257;-72
2022/09/30 05:31:02;;;;;;;50.73;26.93;;;;;;;4.59;100.00;99494.31;4165771;28;22575;-73
2022/09/30 05:33:29;;;;;;;60.07;28.23;;;;;;;4.67;100.00;99500.75;4159564;28;20599;-71
2022/09/30 05:36:01;;;;;;;49.53;26.87;;;;;;;4.75;100.00;99504.41;4171392;28;23224;-73
2022/09/30 05:38:28;;;;;;;65.53;30.23;;;;;;;4.83;100.00;99509.00;4176221;28;20324;-73
2022/09/30 05:40:55;;;;;;;54.17;28.27;;;;;;;4.86;100.00;99517.47;4158091;28;21816;-74
2022/09/30 05:43:22;;;;;;;54.00;26.63;;;;;;;4.92;100.00;99521.41;4167447;28;20229;-75
2022/09/30 05:45:53;;;;;;;58.43;27.97;;;;;;;5.00;100.00;99523.38;4171437;28;20632;-72
2022/09/30 05:48:20;;;;;;;64.63;29.50;;;;;;;5.07;100.00;99514.78;4182339;28;20816;-76
2022/09/30 05:50:51;;;;;;;58.87;27.57;;;;;;;5.14;100.00;99530.09;4159914;28;20274;-73
2022/09/30 05:53:18;;;;;;;68.73;29.50;;;;;;;5.11;100.00;99522.47;4161087;28;20295;-72
2022/09/30 05:55:46;;;;;;;57.73;28.73;;;;;;;5.13;100.00;99523.13;4166890;28;20227;-73
2022/09/30 05:58:14;;;;;;;60.60;28.33;;;;;;;5.29;100.00;99528.75;4175927;28;20304;-71
2022/09/30 06:00:42;;;;;;;61.50;28.97;;;;;;;5.32;100.00;99528.50;4163861;28;21473;-70
2022/09/30 06:03:08;;;;;;;58.73;28.20;;;;;;;5.41;100.00;99525.06;4164586;28;20334;-72
2022/09/30 06:05:35;;;;;;;57.23;29.00;;;;;;;5.48;100.00;99533.28;4179343;28;21156;-71
2022/09/30 06:08:05;;;;;;;62.17;30.03;;;;;;;5.59;100.00;99535.78;4188971;28;20310;-78
2022/09/30 06:10:33;;;;;;;55.53;27.83;;;;;;;5.63;100.00;99544.28;4166796;28;23781;-73
2022/09/30 06:13:03;;;;;;;53.23;27.97;;;;;;;5.73;100.00;99542.50;4162277;28;20293;-74
2022/09/30 06:15:30;;;;;;;52.53;27.33;;;;;;;5.87;100.00;99547.38;4189803;28;22778;-72
2022/09/30 06:17:57;;;;;;;62.23;28.23;;;;;;;5.94;100.00;99545.06;4187097;28;20315;-71
2022/09/30 06:20:24;;;;;;;61.63;28.50;;;;;;;6.07;100.00;99555.38;4175962;28;20670;-76
2022/09/30 06:22:50;;;;;;;55.90;28.10;;;;;;;6.24;100.00;99552.03;4156798;28;21104;-73
2022/09/30 06:25:17;;;;;;;59.13;27.80;;;;;;;6.37;100.00;99559.69;4180397;28;20250;-74
2022/09/30 06:27:45;;;;;;;53.97;28.17;;;;;;;6.54;100.00;99563.44;4211582;28;23720;-74
2022/09/30 06:30:12;;;;;;;61.17;28.83;;;;;;;6.75;100.00;99563.28;4169520;28;20252;-74
2022/09/30 06:32:39;;;;;;;53.63;25.53;;;;;;;6.96;100.00;99573.66;4173043;28;20986;-73
2022/09/30 06:35:06;;;;;;;58.43;27.07;;;;;;;7.11;100.00;99569.56;4177314;28;20341;-76
2022/09/30 06:37:36;;;;;;;51.00;25.53;;;;;;;7.32;100.00;99573.81;4162457;28;20264;-76
2022/09/30 06:40:04;;;;;;;59.50;26.80;;;;;;;7.48;100.00;99563.44;4181795;28;21230;-75
2022/09/30 06:42:31;;;;;;;49.90;25.80;;;;;;;7.74;100.00;99573.34;4187277;28;22171;-80
2022/09/30 06:44:58;;;;;;;54.67;27.10;;;;;;;7.84;100.00;99574.13;4215527;28;21326;-77
2022/09/30 06:47:25;;;;;;;51.73;25.80;;;;;;;7.97;100.00;99577.25;4183313;29;20246;-74
2022/09/30 06:49:57;;;;;;;52.93;25.50;;;;;;;7.95;100.00;99581.84;4176287;28;20238;-73
2022/09/30 06:52:25;;;;;;;46.63;23.47;;;;;;;8.15;100.00;99571.16;4166543;28;20701;-75
2022/09/30 06:54:51;;;;;;;47.30;23.73;;;;;;;8.36;100.00;99579.63;4195592;28;20248;-74
2022/09/30 06:57:21;;;;;;;45.50;23.07;;;;;;;8.45;100.00;99581.41;4137832;28;20240;-77
2022/09/30 06:59:48;;;;;;;43.67;22.03;;;;;;;8.72;100.00;99579.63;4182267;28;20247;-75
2022/09/30 07:02:15;;;;;;;45.87;23.30;;;;;;;8.85;100.00;99585.38;4165494;28;20226;-77
2022/09/30 07:04:42;;;;;;;45.57;23.90;;;;;;;9.03;100.00;99585.31;4204425;28;21049;-77
2022/09/30 07:07:09;;;;;;;48.40;23.07;;;;;;;9.30;100.00;99584.31;4200596;28;20309;-77
2022/09/30 07:09:36;;;;;;;43.20;21.80;;;;;;;9.42;100.00;99584.03;4198536;28;20306;-79
2022/09/30 07:12:06;;;;;;;37.90;20.93;;;;;;;10.00;100.00;99596.56;4216133;28;21093;-82
2022/09/30 07:14:34;;;;;;;47.53;20.60;;;;;;;10.87;96.22;99602.34;4183714;28;20321;-72
2022/09/30 07:17:03;;;;;;;36.23;19.57;;;;;;;12.52;90.29;99599.88;4175229;28;21806;-72
2022/09/30 07:19:30;;;;;;;38.47;18.03;;;;;;;15.88;70.67;99620.19;4147513;28;20596;-75
2022/09/30 07:22:26;;;;;;;30.97;15.90;;;;;;;19.25;54.10;99639.63;4176261;28;20243;-76
2022/09/30 07:24:44;;;;;;;36.27;16.10;;;;;;;20.87;44.01;99646.41;4177475;28;21895;-75
2022/09/30 07:27:12;;;;;;;26.77;15.57;;;;;;;20.77;42.39;99654.28;4199541;28;21652;-54
2022/09/30 07:29:40;;;;;;;32.97;16.30;;;;;;;20.19;44.75;99653.78;4181579;28;20243;-66
2022/09/30 07:32:26;;;;;;;36.97;14.93;;;;;;;21.74;40.56;99667.44;4178331;28;20454;-70
2022/09/30 07:34:54;;;;;;;28.07;14.70;;;;;;;21.65;39.41;99666.16;4184973;28;20246;-67
2022/09/30 07:37:24;;;;;;;27.27;15.20;;;;;;;20.56;41.98;99664.56;4195072;28;20298;-69
2022/09/30 07:39:51;;;;;;;31.27;14.63;;;;;;;20.11;43.17;99655.97;4168353;28;20242;-67
2022/09/30 07:42:21;;;;;;;30.40;15.33;;;;;;;18.86;46.78;99649.66;4175884;28;21784;-68
2022/09/30 07:44:50;;;;;;;29.83;15.17;;;;;;;18.33;47.45;99658.03;4177184;28;20237;-68
2022/09/30 07:47:18;;;;;;;32.60;15.60;;;;;;;17.36;49.81;99651.69;4172504;28;20691;-67
2022/09/30 07:49:46;;;;;;;34.03;15.97;;;;;;;16.34;53.64;99638.31;4201378;28;21187;-68
2022/09/30 07:52:13;;;;;;;30.90;15.90;;;;;;;15.78;57.15;99643.84;4178982;28;20759;-69
2022/09/30 07:54:41;;;;;;;35.93;15.03;;;;;;;15.62;59.03;99651.16;4191817;28;20698;-69
2022/09/30 07:57:15;;;;;;;28.33;14.80;;;;;;;16.00;57.20;99650.78;4202549;28;20236;-66
2022/09/30 07:59:42;;;;;;;28.60;15.23;;;;;;;16.20;56.64;99656.25;4198908;28;20274;-68
2022/09/30 08:02:16;;;;;;;32.13;14.40;;;;;;;16.93;54.67;99670.88;4174272;28;21005;-68
2022/09/30 08:04:44;;;;;;;32.47;15.03;;;;;;;17.13;53.76;99671.72;4158585;28;20572;-68
2022/09/30 08:07:12;;;;;;;29.90;15.03;;;;;;;17.55;52.55;99672.34;4192812;28;20289;-68
2022/09/30 08:09:39;;;;;;;25.67;15.23;;;;;;;18.45;49.00;99680.56;4187238;28;20361;-67
2022/09/30 08:12:06;;;;;;;24.43;13.90;;;;;;;18.40;48.17;99680.38;4169452;28;20234;-67
2022/09/30 08:14:33;;;;;;;29.47;14.10;;;;;;;18.01;48.90;99689.47;4167483;28;20334;-68
2022/09/30 08:16:59;;;;;;;24.03;13.57;;;;;;;17.54;50.08;99676.06;4166742;28;20253;-67
2022/09/30 08:19:28;;;;;;;26.57;14.07;;;;;;;16.43;53.88;99669.31;4178500;28;23768;-72
2022/09/30 08:21:55;;;;;;;29.40;14.83;;;;;;;15.19;60.31;99669.22;4183398;28;21427;-70
2022/09/30 08:24:22;;;;;;;37.10;14.60;;;;;;;14.71;63.05;99661.78;4234382;28;25414;-71
2022/09/30 08:26:50;;;;;;;25.80;14.30;;;;;;;14.38;63.96;99656.06;4161274;28;20243;-71
2022/09/30 08:29:17;;;;;;;26.97;14.87;;;;;;;13.98;66.59;99655.59;4180235;28;20412;-67
2022/09/30 08:31:50;;;;;;;26.70;15.70;;;;;;;13.47;69.49;99661.66;4161903;28;21401;-69
2022/09/30 08:34:17;;;;;;;30.17;16.43;;;;;;;13.29;71.26;99658.50;4161259;28;20662;-70
2022/09/30 08:36:45;;;;;;;29.20;15.97;;;;;;;12.89;72.79;99655.97;4176442;28;21387;-69
2022/09/30 08:39:12;;;;;;;25.10;14.77;;;;;;;13.00;72.44;99661.91;4173924;28;24213;-69
2022/09/30 08:41:56;;;;;;;29.60;16.37;;;;;;;12.76;74.37;99657.56;4172141;28;20497;-70
2022/09/30 08:44:43;;;;;;;35.13;16.57;;;;;;;12.85;74.06;99661.84;4159172;28;20325;-69
2022/09/30 08:47:44;;;;;;;27.73;16.03;;;;;;;13.03;73.68;99659.69;4171547;28;20373;-68
2022/09/30 08:50:33;;;;;;;31.03;16.07;;;;;;;12.67;74.26;99662.16;4166409;28;20259;-42
2022/09/30 08:53:06;;;;;;;29.00;16.10;;;;;;;12.66;74.75;99669.31;4182184;28;23685;-71
2022/09/30 08:55:43;;;;;;;33.57;15.47;;;;;;;12.61;75.44;99662.84;4148375;28;21697;-71
2022/09/30 08:58:26;;;;;;;27.80;16.10;;;;;;;12.43;75.64;99665.78;4148292;28;20230;-75
2022/09/30 09:01:18;;;;;;;28.77;16.23;;;;;;;12.40;76.47;99668.81;4169417;28;22701;-72
2022/09/30 09:03:45;;;;;;;29.57;16.07;;;;;;;12.51;76.79;99662.28;4159726;28;22273;-76
2022/09/30 09:06:17;;;;;;;30.10;16.70;;;;;;;12.49;77.22;99665.09;4172689;28;20258;-74
2022/09/30 09:08:59;;;;;;;33.10;17.47;;;;;;;12.46;78.40;99668.13;4172946;28;20229;-77
2022/09/30 09:11:40;;;;;;;29.80;15.73;;;;;;;12.16;77.19;99675.94;4152006;28;20240;-79
2022/09/30 09:14:21;;;;;;;29.93;15.93;;;;;;;11.72;79.61;99670.25;4162539;28;20237;-78
2022/09/30 09:17:06;;;;;;;27.90;15.60;;;;;;;11.64;79.31;99678.28;4174153;28;20235;-75
2022/09/30 09:19:56;;;;;;;29.20;15.13;;;;;;;11.36;79.69;99679.50;4216546;28;22430;-76
2022/09/30 09:22:25;;;;;;;27.43;15.30;;;;;;;11.37;81.55;99681.16;4195752;28;20224;-78
2022/09/30 09:24:54;;;;;;;30.67;15.23;;;;;;;11.63;80.54;99680.09;4145692;28;23605;-76
2022/09/30 09:27:42;;;;;;;29.57;15.53;;;;;;;11.70;80.39;99678.41;4193846;28;25131;-75
2022/09/30 09:30:13;;;;;;;40.13;16.57;;;;;;;11.76;79.85;99685.75;4174679;28;20384;-74
2022/09/30 09:32:41;;;;;;;32.63;15.10;;;;;;;11.88;78.90;99685.41;4158352;28;24014;-75
2022/09/30 09:35:48;;;;;;;29.33;15.83;;;;;;;11.75;79.28;99680.56;4157969;28;22032;-73
2022/09/30 09:38:24;;;;;;;26.70;14.53;;;;;;;11.79;80.05;99679.22;4184961;28;20259;-73
2022/09/30 09:41:17;;;;;;;34.60;16.03;;;;;;;11.95;79.14;99679.22;4152734;28;22921;-75
2022/09/30 09:44:25;;;;;;;27.20;14.47;;;;;;;12.16;80.06;99681.28;4160608;28;20309;-75
2022/09/30 09:47:13;;;;;;;32.63;15.90;;;;;;;12.33;75.64;99673.19;4159875;28;22364;-75
2022/09/30 09:49:43;;;;;;;26.67;13.97;;;;;;;12.39;74.53;99673.34;4179929;28;21766;-76
2022/09/30 09:52:11;;;;;;;28.57;14.20;;;;;;;12.59;74.14;99676.38;4188676;28;21074;-76
2022/09/30 09:54:42;;;;;;;37.50;15.47;;;;;;;12.79;73.63;99681.25;4192177;28;21728;-75
2022/09/30 09:57:11;;;;;;;29.23;15.17;;;;;;;12.96;72.87;99680.13;4182504;28;20237;-74
2022/09/30 09:59:54;;;;;;;28.57;14.03;;;;;;;13.09;71.86;99676.84;4192455;28;20253;-76
2022/09/30 10:02:27;;;;;;;34.50;15.20;;;;;;;12.97;72.13;99673.78;4214760;28;20288;-74
2022/09/30 10:05:00;;;;;;;28.67;14.90;;;;;;;13.08;72.26;99676.00;4182198;28;20249;-74
2022/09/30 10:07:31;;;;;;;26.17;14.33;;;;;;;13.28;70.12;99675.56;4173378;28;21164;-73
2022/09/30 10:10:16;;;;;;;21.77;12.87;;;;;;;13.63;68.35;99673.22;4192731;28;21571;-76
2022/09/30 10:12:49;;;;;;;28.90;14.63;;;;;;;13.56;70.33;99670.44;4190122;28;22006;-75
2022/09/30 10:15:25;;;;;;;23.43;13.97;;;;;;;13.91;67.93;99668.03;4215851;29;20235;-77
2022/09/30 10:17:56;;;;;;;30.00;15.50;;;;;;;14.23;66.20;99669.44;4193842;28;21018;-75
2022/09/30 10:20:33;;;;;;;24.93;15.30;;;;;;;13.98;65.78;99665.44;4164248;28;20250;-73
2022/09/30 10:23:07;;;;;;;29.37;15.00;;;;;;;13.72;65.04;99672.94;4177507;28;20424;-76
2022/09/30 10:25:33;;;;;;;28.60;14.33;;;;;;;13.44;66.29;99675.41;4169471;28;20234;-77
2022/09/30 10:28:03;;;;;;;27.17;14.20;;;;;;;13.49;66.89;99673.00;4174709;28;20619;-75
2022/09/30 10:30:43;;;;;;;23.93;14.00;;;;;;;13.24;68.22;99669.69;4176706;28;21254;-74
2022/09/30 10:33:20;;;;;;;27.90;15.50;;;;;;;13.47;68.12;99683.03;4221071;28;20298;-77
2022/09/30 10:36:03;;;;;;;27.00;14.97;;;;;;;13.44;69.06;99682.59;4184542;28;20352;-75
2022/09/30 10:38:32;;;;;;;26.30;15.47;;;;;;;13.58;68.40;99687.13;4190187;29;20864;-76
2022/09/30 10:41:00;;;;;;;24.33;14.37;;;;;;;13.86;66.48;99692.66;4184908;28;20241;-74
2022/09/30 10:43:43;;;;;;;31.00;14.90;;;;;;;13.81;66.61;99691.53;4201435;28;21238;-75
2022/09/30 10:46:10;;;;;;;25.77;14.90;;;;;;;13.67;67.77;99696.72;4192629;28;20244;-75
2022/09/30 10:48:54;;;;;;;28.00;15.07;;;;;;;13.50;68.37;99685.34;4166239;29;20237;-77
2022/09/30 10:51:27;;;;;;;24.27;14.47;;;;;;;13.66;67.65;99692.38;4162875;28;20239;-75
2022/09/30 10:53:55;;;;;;;22.40;14.23;;;;;;;13.62;67.03;99691.06;4173991;28;20227;-77
2022/09/30 10:56:36;;;;;;;23.43;13.37;;;;;;;13.58;68.20;99687.13;4172195;28;20307;-75
2022/09/30 10:59:06;;;;;;;27.40;13.93;;;;;;;13.57;68.14;99689.97;4168361;28;21524;-75
2022/09/30 11:01:42;;;;;;;22.23;13.33;;;;;;;13.46;67.79;99683.22;4158851;28;20433;-76
2022/09/30 11:04:30;;;;;;;23.47;12.33;;;;;;;13.52;66.63;99682.50;4180812;28;21578;-76
2022/09/30 11:07:21;;;;;;;22.67;12.67;;;;;;;13.61;66.69;99685.94;4168665;28;21230;-75
2022/09/30 11:10:05;;;;;;;22.17;12.73;;;;;;;13.63;66.63;99686.56;4161336;28;20291;-72
2022/09/30 11:12:46;;;;;;;20.17;12.33;;;;;;;13.34;67.89;99690.84;4176782;28;20345;-74
2022/09/30 11:15:21;;;;;;;18.47;11.43;;;;;;;13.50;67.07;99690.69;4155936;28;20302;-74
2022/09/30 11:18:00;;;;;;;20.13;11.70;;;;;;;13.49;67.23;99689.03;4155369;28;20568;-76
2022/09/30 11:20:34;;;;;;;24.60;11.70;;;;;;;13.43;68.07;99684.41;4152665;28;20391;-74
2022/09/30 11:23:22;;;;;;;21.10;12.47;;;;;;;13.59;67.91;99683.41;4162388;28;20387;-74
2022/09/30 11:26:00;;;;;;;20.23;10.13;;;;;;;13.65;65.45;99689.88;4180617;28;20243;-74
2022/09/30 11:28:34;;;;;;;17.90;10.07;;;;;;;13.65;66.12;99692.53;4156682;28;20245;-74
2022/09/30 11:31:25;;;;;;;16.10;9.87;;;;;;;13.62;65.76;99682.22;4186097;28;20233;-75
2022/09/30 11:34:00;;;;;;;17.00;9.40;;;;;;;13.54;66.64;99687.66;4182850;28;20241;-76
2022/09/30 11:36:41;;;;;;;17.83;9.47;;;;;;;13.50;66.45;99690.69;4186578;28;20245;-77
2022/09/30 11:39:31;;;;;;;15.20;9.47;;;;;;;13.33;66.91;99689.19;4217491;28;21325;-75
2022/09/30 11:42:04;;;;;;;16.53;9.13;;;;;;;13.28;67.16;99686.25;4199321;28;20254;-76
2022/09/30 11:44:34;;;;;;;16.23;8.50;;;;;;;13.25;67.48;99687.41;4180302;28;21977;-72